sensor_id;sensor_type;location;lat;lon;timestamp;temperature;humidity
20327;DHT22;20947;47.816;9.644;2022-07-03T00:03:24;21.70;53.30
20327;DHT22;20947;47.816;9.644;2022-07-03T00:07:25;21.70;53.40
20327;DHT22;20947;47.816;9.644;2022-07-03T00:11:26;21.70;54.10
20327;DHT22;20947;47.816;9.644;2022-07-03T00:15:26;21.70;53.40
20327;DHT22;20947;47.816;9.644;2022-07-03T00:19:27;21.70;53.40
20327;DHT22;20947;47.816;9.644;2022-07-03T00:23:30;21.70;53.20
20327;DHT22;20947;47.816;9.644;2022-07-03T00:27:34;21.70;53.50
20327;DHT22;20947;47.816;9.644;2022-07-03T00:31:37;21.70;53.50
20327;DHT22;20947;47.816;9.644;2022-07-03T00:35:39;21.70;53.50
20327;DHT22;20947;47.816;9.644;2022-07-03T00:39:42;21.70;53.50
20327;DHT22;20947;47.816;9.644;2022-07-03T00:43:43;21.70;53.60
20327;DHT22;20947;47.816;9.644;2022-07-03T00:47:46;21.70;53.50
20327;DHT22;20947;47.816;9.644;2022-07-03T00:51:51;21.70;53.50
20327;DHT22;20947;47.816;9.644;2022-07-03T00:55:55;21.70;53.40
20327;DHT22;20947;47.816;9.644;2022-07-03T00:59:57;21.70;53.40
20327;DHT22;20947;47.816;9.644;2022-07-03T01:08:51;21.70;54.30
20327;DHT22;20947;47.816;9.644;2022-07-03T01:13:12;21.70;53.60
20327;DHT22;20947;47.816;9.644;2022-07-03T01:17:26;21.70;53.70
20327;DHT22;20947;47.816;9.644;2022-07-03T01:25:51;21.70;53.70
20327;DHT22;20947;47.816;9.644;2022-07-03T01:34:06;21.70;53.60
20327;DHT22;20947;47.816;9.644;2022-07-03T01:38:12;21.70;53.50
20327;DHT22;20947;47.816;9.644;2022-07-03T01:42:14;21.70;53.50
20327;DHT22;20947;47.816;9.644;2022-07-03T01:46:27;21.70;53.50
20327;DHT22;20947;47.816;9.644;2022-07-03T01:50:29;21.70;53.60
20327;DHT22;20947;47.816;9.644;2022-07-03T01:54:32;21.60;53.50
20327;DHT22;20947;47.816;9.644;2022-07-03T01:58:33;21.60;53.60
20327;DHT22;20947;47.816;9.644;2022-07-03T02:02:40;21.60;53.60
20327;DHT22;20947;47.816;9.644;2022-07-03T02:07:08;21.60;53.60
20327;DHT22;20947;47.816;9.644;2022-07-03T02:11:17;21.60;53.50
20327;DHT22;20947;47.816;9.644;2022-07-03T02:15:24;21.60;53.40
20327;DHT22;20947;47.816;9.644;2022-07-03T02:19:38;21.60;53.50
20327;DHT22;20947;47.816;9.644;2022-07-03T02:32:22;21.60;53.40
20327;DHT22;20947;47.816;9.644;2022-07-03T02:36:25;21.60;53.60
20327;DHT22;20947;47.816;9.644;2022-07-03T02:40:46;21.60;53.50
20327;DHT22;20947;47.816;9.644;2022-07-03T02:44:51;21.60;53.60
20327;DHT22;20947;47.816;9.644;2022-07-03T02:49:02;21.60;53.50
20327;DHT22;20947;47.816;9.644;2022-07-03T02:53:38;21.60;53.50
20327;DHT22;20947;47.816;9.644;2022-07-03T02:57:41;21.60;53.50
20327;DHT22;20947;47.816;9.644;2022-07-03T03:06:12;21.60;53.60
20327;DHT22;20947;47.816;9.644;2022-07-03T03:10:14;21.60;53.50
20327;DHT22;20947;47.816;9.644;2022-07-03T03:14:20;21.60;53.50
20327;DHT22;20947;47.816;9.644;2022-07-03T03:18:26;21.60;53.50
20327;DHT22;20947;47.816;9.644;2022-07-03T03:27:05;21.60;53.60
20327;DHT22;20947;47.816;9.644;2022-07-03T03:31:08;21.60;53.60
20327;DHT22;20947;47.816;9.644;2022-07-03T03:35:10;21.60;53.60
20327;DHT22;20947;47.816;9.644;2022-07-03T03:39:10;21.60;53.70
20327;DHT22;20947;47.816;9.644;2022-07-03T03:43:12;21.60;53.60
20327;DHT22;20947;47.816;9.644;2022-07-03T03:47:12;21.60;53.60
20327;DHT22;20947;47.816;9.644;2022-07-03T03:51:13;21.60;53.70
20327;DHT22;20947;47.816;9.644;2022-07-03T03:55:14;21.60;53.60
20327;DHT22;20947;47.816;9.644;2022-07-03T03:59:15;21.60;53.70
20327;DHT22;20947;47.816;9.644;2022-07-03T04:03:18;21.60;54.50
20327;DHT22;20947;47.816;9.644;2022-07-03T04:07:18;21.60;53.90
20327;DHT22;20947;47.816;9.644;2022-07-03T04:11:19;21.60;53.80
20327;DHT22;20947;47.816;9.644;2022-07-03T04:15:20;21.60;53.90
20327;DHT22;20947;47.816;9.644;2022-07-03T04:19:21;21.60;53.90
20327;DHT22;20947;47.816;9.644;2022-07-03T04:23:22;21.60;53.80
20327;DHT22;20947;47.816;9.644;2022-07-03T04:27:23;21.60;53.80
20327;DHT22;20947;47.816;9.644;2022-07-03T04:31:23;21.60;53.80
20327;DHT22;20947;47.816;9.644;2022-07-03T04:35:24;21.50;53.70
20327;DHT22;20947;47.816;9.644;2022-07-03T04:39:25;21.60;53.80
20327;DHT22;20947;47.816;9.644;2022-07-03T04:43:25;21.60;53.90
20327;DHT22;20947;47.816;9.644;2022-07-03T04:47:26;21.60;53.90
20327;DHT22;20947;47.816;9.644;2022-07-03T04:51:26;21.60;54.00
20327;DHT22;20947;47.816;9.644;2022-07-03T04:55:27;21.60;54.00
20327;DHT22;20947;47.816;9.644;2022-07-03T04:59:27;21.60;54.10
20327;DHT22;20947;47.816;9.644;2022-07-03T05:03:28;21.60;54.10
20327;DHT22;20947;47.816;9.644;2022-07-03T05:07:29;21.60;54.10
20327;DHT22;20947;47.816;9.644;2022-07-03T05:11:29;21.60;54.20
20327;DHT22;20947;47.816;9.644;2022-07-03T05:15:30;21.60;54.20
20327;DHT22;20947;47.816;9.644;2022-07-03T05:19:30;21.60;54.20
20327;DHT22;20947;47.816;9.644;2022-07-03T05:23:31;21.60;54.30
20327;DHT22;20947;47.816;9.644;2022-07-03T05:27:37;21.50;54.10
20327;DHT22;20947;47.816;9.644;2022-07-03T05:31:38;21.60;54.20
20327;DHT22;20947;47.816;9.644;2022-07-03T05:35:38;21.60;54.20
20327;DHT22;20947;47.816;9.644;2022-07-03T05:39:39;21.50;54.10
20327;DHT22;20947;47.816;9.644;2022-07-03T05:43:40;21.60;54.30
20327;DHT22;20947;47.816;9.644;2022-07-03T05:47:43;21.60;54.20
20327;DHT22;20947;47.816;9.644;2022-07-03T05:51:46;21.60;54.30
20327;DHT22;20947;47.816;9.644;2022-07-03T05:55:49;21.60;54.50
20327;DHT22;20947;47.816;9.644;2022-07-03T05:59:50;21.60;54.30
20327;DHT22;20947;47.816;9.644;2022-07-03T06:03:50;21.60;54.40
20327;DHT22;20947;47.816;9.644;2022-07-03T06:07:54;21.60;54.40
20327;DHT22;20947;47.816;9.644;2022-07-03T06:11:54;21.60;54.40
20327;DHT22;20947;47.816;9.644;2022-07-03T06:15:55;21.60;54.40
20327;DHT22;20947;47.816;9.644;2022-07-03T06:19:56;21.60;54.40
20327;DHT22;20947;47.816;9.644;2022-07-03T06:23:56;21.60;54.40
20327;DHT22;20947;47.816;9.644;2022-07-03T06:27:57;21.60;54.60
20327;DHT22;20947;47.816;9.644;2022-07-03T06:31:57;21.60;54.50
20327;DHT22;20947;47.816;9.644;2022-07-03T06:35:58;21.60;54.50
20327;DHT22;20947;47.816;9.644;2022-07-03T06:39:59;21.60;54.50
20327;DHT22;20947;47.816;9.644;2022-07-03T06:43:59;21.60;54.50
20327;DHT22;20947;47.816;9.644;2022-07-03T06:48:02;21.60;54.40
20327;DHT22;20947;47.816;9.644;2022-07-03T06:52:03;21.60;54.50
20327;DHT22;20947;47.816;9.644;2022-07-03T06:56:04;21.60;54.60
20327;DHT22;20947;47.816;9.644;2022-07-03T07:00:05;21.60;54.50
20327;DHT22;20947;47.816;9.644;2022-07-03T07:04:06;21.60;54.50
20327;DHT22;20947;47.816;9.644;2022-07-03T07:08:06;21.60;54.60
20327;DHT22;20947;47.816;9.644;2022-07-03T07:12:07;21.60;54.60
20327;DHT22;20947;47.816;9.644;2022-07-03T07:16:08;21.60;54.60
20327;DHT22;20947;47.816;9.644;2022-07-03T07:20:09;21.60;54.80
20327;DHT22;20947;47.816;9.644;2022-07-03T07:24:12;21.60;55.00
20327;DHT22;20947;47.816;9.644;2022-07-03T07:28:15;21.60;54.80
20327;DHT22;20947;47.816;9.644;2022-07-03T07:32:15;21.60;54.80
20327;DHT22;20947;47.816;9.644;2022-07-03T07:36:18;21.60;54.70
20327;DHT22;20947;47.816;9.644;2022-07-03T07:40:19;21.60;54.80
20327;DHT22;20947;47.816;9.644;2022-07-03T07:44:20;21.60;54.70
20327;DHT22;20947;47.816;9.644;2022-07-03T07:48:20;21.60;54.50
20327;DHT22;20947;47.816;9.644;2022-07-03T07:52:23;21.60;54.70
20327;DHT22;20947;47.816;9.644;2022-07-03T07:56:26;21.60;54.70
20327;DHT22;20947;47.816;9.644;2022-07-03T08:00:27;21.60;54.70
20327;DHT22;20947;47.816;9.644;2022-07-03T08:04:28;21.60;54.70
20327;DHT22;20947;47.816;9.644;2022-07-03T08:08:49;21.60;54.70
20327;DHT22;20947;47.816;9.644;2022-07-03T08:12:50;21.60;54.70
20327;DHT22;20947;47.816;9.644;2022-07-03T08:16:50;21.60;54.70
20327;DHT22;20947;47.816;9.644;2022-07-03T08:20:51;21.70;54.70
20327;DHT22;20947;47.816;9.644;2022-07-03T08:24:52;21.70;55.00
20327;DHT22;20947;47.816;9.644;2022-07-03T08:28:52;21.70;55.00
20327;DHT22;20947;47.816;9.644;2022-07-03T08:32:55;21.70;55.10
20327;DHT22;20947;47.816;9.644;2022-07-03T08:36:56;21.70;54.90
20327;DHT22;20947;47.816;9.644;2022-07-03T08:41:01;21.70;54.90
20327;DHT22;20947;47.816;9.644;2022-07-03T08:45:02;21.70;54.90
20327;DHT22;20947;47.816;9.644;2022-07-03T08:49:04;21.70;54.90
20327;DHT22;20947;47.816;9.644;2022-07-03T08:53:06;21.70;54.80
20327;DHT22;20947;47.816;9.644;2022-07-03T08:57:10;21.70;54.80
20327;DHT22;20947;47.816;9.644;2022-07-03T09:01:15;21.70;54.80
20327;DHT22;20947;47.816;9.644;2022-07-03T09:05:19;21.70;54.80
20327;DHT22;20947;47.816;9.644;2022-07-03T09:09:22;21.70;54.70
20327;DHT22;20947;47.816;9.644;2022-07-03T09:13:25;21.70;54.80
20327;DHT22;20947;47.816;9.644;2022-07-03T09:17:29;21.70;54.80
20327;DHT22;20947;47.816;9.644;2022-07-03T09:21:40;21.70;54.80
20327;DHT22;20947;47.816;9.644;2022-07-03T09:25:54;21.70;54.80
20327;DHT22;20947;47.816;9.644;2022-07-03T09:38:06;21.70;54.80
20327;DHT22;20947;47.816;9.644;2022-07-03T09:42:08;21.70;54.70
20327;DHT22;20947;47.816;9.644;2022-07-03T09:46:11;21.70;54.80
20327;DHT22;20947;47.816;9.644;2022-07-03T09:50:12;21.70;54.80
20327;DHT22;20947;47.816;9.644;2022-07-03T09:54:15;21.70;54.80
20327;DHT22;20947;47.816;9.644;2022-07-03T09:58:18;21.70;54.80
20327;DHT22;20947;47.816;9.644;2022-07-03T10:02:18;21.70;54.80
20327;DHT22;20947;47.816;9.644;2022-07-03T10:06:19;21.70;54.80
20327;DHT22;20947;47.816;9.644;2022-07-03T10:10:23;21.70;54.80
20327;DHT22;20947;47.816;9.644;2022-07-03T10:14:28;21.70;54.80
20327;DHT22;20947;47.816;9.644;2022-07-03T10:18:30;21.70;54.80
20327;DHT22;20947;47.816;9.644;2022-07-03T10:22:33;21.80;54.90
20327;DHT22;20947;47.816;9.644;2022-07-03T10:26:39;21.70;54.70
20327;DHT22;20947;47.816;9.644;2022-07-03T10:30:42;21.80;54.90
20327;DHT22;20947;47.816;9.644;2022-07-03T10:34:44;21.70;54.80
20327;DHT22;20947;47.816;9.644;2022-07-03T10:38:49;21.80;54.90
20327;DHT22;20947;47.816;9.644;2022-07-03T10:43:06;21.80;54.90
20327;DHT22;20947;47.816;9.644;2022-07-03T10:51:58;21.80;54.80
20327;DHT22;20947;47.816;9.644;2022-07-03T10:56:03;21.80;55.50
20327;DHT22;20947;47.816;9.644;2022-07-03T11:00:15;21.80;54.80
20327;DHT22;20947;47.816;9.644;2022-07-03T11:04:16;21.80;55.50
20327;DHT22;20947;47.816;9.644;2022-07-03T11:08:17;21.80;54.80
20327;DHT22;20947;47.816;9.644;2022-07-03T11:17:19;21.80;54.80
20327;DHT22;20947;47.816;9.644;2022-07-03T11:21:24;21.80;54.80
20327;DHT22;20947;47.816;9.644;2022-07-03T11:25:38;21.80;54.80
20327;DHT22;20947;47.816;9.644;2022-07-03T11:29:39;21.80;54.80
20327;DHT22;20947;47.816;9.644;2022-07-03T11:33:49;21.80;54.80
20327;DHT22;20947;47.816;9.644;2022-07-03T11:37:56;21.80;54.80
20327;DHT22;20947;47.816;9.644;2022-07-03T11:41:57;21.80;54.80
20327;DHT22;20947;47.816;9.644;2022-07-03T11:46:01;21.80;54.80
20327;DHT22;20947;47.816;9.644;2022-07-03T11:50:03;21.80;54.80
20327;DHT22;20947;47.816;9.644;2022-07-03T11:54:05;21.80;54.80
20327;DHT22;20947;47.816;9.644;2022-07-03T11:58:05;21.80;54.80
20327;DHT22;20947;47.816;9.644;2022-07-03T12:02:08;21.80;54.80
20327;DHT22;20947;47.816;9.644;2022-07-03T12:06:09;21.80;54.80
20327;DHT22;20947;47.816;9.644;2022-07-03T12:10:10;21.80;54.80
20327;DHT22;20947;47.816;9.644;2022-07-03T12:14:13;21.80;54.80
20327;DHT22;20947;47.816;9.644;2022-07-03T12:18:16;21.80;54.80
20327;DHT22;20947;47.816;9.644;2022-07-03T12:22:29;21.80;54.80
20327;DHT22;20947;47.816;9.644;2022-07-03T12:26:33;21.80;54.80
20327;DHT22;20947;47.816;9.644;2022-07-03T12:30:35;21.80;54.80
20327;DHT22;20947;47.816;9.644;2022-07-03T12:34:41;21.80;54.80
20327;DHT22;20947;47.816;9.644;2022-07-03T12:38:42;21.80;54.90
20327;DHT22;20947;47.816;9.644;2022-07-03T12:42:47;21.80;54.80
20327;DHT22;20947;47.816;9.644;2022-07-03T12:46:50;21.80;54.80
20327;DHT22;20947;47.816;9.644;2022-07-03T12:50:53;21.90;55.00
20327;DHT22;20947;47.816;9.644;2022-07-03T12:54:58;22.00;54.30
20327;DHT22;20947;47.816;9.644;2022-07-03T12:59:06;22.00;53.70
20327;DHT22;20947;47.816;9.644;2022-07-03T13:03:35;22.10;53.20
20327;DHT22;20947;47.816;9.644;2022-07-03T13:07:39;22.10;52.70
20327;DHT22;20947;47.816;9.644;2022-07-03T13:11:41;22.10;52.30
20327;DHT22;20947;47.816;9.644;2022-07-03T13:15:42;22.20;52.20
20327;DHT22;20947;47.816;9.644;2022-07-03T13:19:42;22.20;52.00
20327;DHT22;20947;47.816;9.644;2022-07-03T13:23:43;22.20;51.70
20327;DHT22;20947;47.816;9.644;2022-07-03T13:27:44;22.20;51.50
20327;DHT22;20947;47.816;9.644;2022-07-03T13:31:45;22.30;51.40
20327;DHT22;20947;47.816;9.644;2022-07-03T13:35:47;22.30;51.30
20327;DHT22;20947;47.816;9.644;2022-07-03T13:39:47;22.30;51.10
20327;DHT22;20947;47.816;9.644;2022-07-03T13:43:51;22.30;51.10
20327;DHT22;20947;47.816;9.644;2022-07-03T13:47:52;22.30;51.00
20327;DHT22;20947;47.816;9.644;2022-07-03T13:51:52;22.30;50.70
20327;DHT22;20947;47.816;9.644;2022-07-03T13:55:55;22.30;50.70
20327;DHT22;20947;47.816;9.644;2022-07-03T13:59:56;22.30;50.50
20327;DHT22;20947;47.816;9.644;2022-07-03T14:03:57;22.30;50.40
20327;DHT22;20947;47.816;9.644;2022-07-03T14:07:57;22.40;50.40
20327;DHT22;20947;47.816;9.644;2022-07-03T14:11:58;22.30;50.20
20327;DHT22;20947;47.816;9.644;2022-07-03T14:16:00;22.30;50.10
20327;DHT22;20947;47.816;9.644;2022-07-03T14:20:03;22.40;50.10
20327;DHT22;20947;47.816;9.644;2022-07-03T14:24:04;22.40;50.00
20327;DHT22;20947;47.816;9.644;2022-07-03T14:28:05;22.40;50.60
20327;DHT22;20947;47.816;9.644;2022-07-03T14:32:23;22.40;49.80
20327;DHT22;20947;47.816;9.644;2022-07-03T14:36:30;22.40;49.80
20327;DHT22;20947;47.816;9.644;2022-07-03T14:40:31;22.40;49.70
20327;DHT22;20947;47.816;9.644;2022-07-03T14:44:31;22.40;49.60
20327;DHT22;20947;47.816;9.644;2022-07-03T14:48:34;22.40;49.50
20327;DHT22;20947;47.816;9.644;2022-07-03T14:52:35;22.40;49.50
20327;DHT22;20947;47.816;9.644;2022-07-03T14:56:40;22.40;49.40
20327;DHT22;20947;47.816;9.644;2022-07-03T15:05:08;22.40;49.20
20327;DHT22;20947;47.816;9.644;2022-07-03T15:09:11;22.50;49.20
20327;DHT22;20947;47.816;9.644;2022-07-03T15:13:15;22.40;49.00
20327;DHT22;20947;47.816;9.644;2022-07-03T15:17:18;22.50;49.10
20327;DHT22;20947;47.816;9.644;2022-07-03T15:21:21;22.40;48.90
20327;DHT22;20947;47.816;9.644;2022-07-03T15:25:25;22.50;48.90
20327;DHT22;20947;47.816;9.644;2022-07-03T15:29:26;22.50;48.80
20327;DHT22;20947;47.816;9.644;2022-07-03T15:33:29;22.50;48.80
20327;DHT22;20947;47.816;9.644;2022-07-03T15:46:08;22.50;48.60
20327;DHT22;20947;47.816;9.644;2022-07-03T15:51:02;22.50;49.40
20327;DHT22;20947;47.816;9.644;2022-07-03T15:58:49;22.30;51.00
20327;DHT22;20947;47.816;9.644;2022-07-03T16:07:09;22.20;51.20
20327;DHT22;20947;47.816;9.644;2022-07-03T16:11:11;22.20;51.20
20327;DHT22;20947;47.816;9.644;2022-07-03T16:15:11;22.20;51.40
20327;DHT22;20947;47.816;9.644;2022-07-03T16:19:12;22.20;52.00
20327;DHT22;20947;47.816;9.644;2022-07-03T16:23:15;22.20;52.30
20327;DHT22;20947;47.816;9.644;2022-07-03T16:27:17;22.10;52.30
20327;DHT22;20947;47.816;9.644;2022-07-03T16:31:25;22.10;52.60
20327;DHT22;20947;47.816;9.644;2022-07-03T16:35:46;22.10;52.50
20327;DHT22;20947;47.816;9.644;2022-07-03T16:39:48;22.10;52.50
20327;DHT22;20947;47.816;9.644;2022-07-03T16:43:56;22.10;52.50
20327;DHT22;20947;47.816;9.644;2022-07-03T16:48:15;22.10;51.90
20327;DHT22;20947;47.816;9.644;2022-07-03T16:52:20;22.20;51.20
20327;DHT22;20947;47.816;9.644;2022-07-03T16:56:23;22.20;50.70
20327;DHT22;20947;47.816;9.644;2022-07-03T17:00:28;22.30;50.40
20327;DHT22;20947;47.816;9.644;2022-07-03T17:04:30;22.30;50.10
20327;DHT22;20947;47.816;9.644;2022-07-03T17:08:32;22.30;49.80
20327;DHT22;20947;47.816;9.644;2022-07-03T17:12:33;22.40;49.80
20327;DHT22;20947;47.816;9.644;2022-07-03T17:16:50;22.40;49.70
20327;DHT22;20947;47.816;9.644;2022-07-03T17:21:01;22.30;49.40
20327;DHT22;20947;47.816;9.644;2022-07-03T17:25:04;22.40;49.30
20327;DHT22;20947;47.816;9.644;2022-07-03T17:29:05;22.40;49.10
20327;DHT22;20947;47.816;9.644;2022-07-03T17:33:07;22.40;49.10
20327;DHT22;20947;47.816;9.644;2022-07-03T17:37:10;22.40;49.00
20327;DHT22;20947;47.816;9.644;2022-07-03T17:41:12;22.40;49.00
20327;DHT22;20947;47.816;9.644;2022-07-03T17:45:17;22.40;48.90
20327;DHT22;20947;47.816;9.644;2022-07-03T17:49:19;22.40;48.70
20327;DHT22;20947;47.816;9.644;2022-07-03T17:53:23;22.40;48.70
20327;DHT22;20947;47.816;9.644;2022-07-03T17:57:25;22.40;48.60
20327;DHT22;20947;47.816;9.644;2022-07-03T18:01:40;22.50;48.60
20327;DHT22;20947;47.816;9.644;2022-07-03T18:05:46;22.40;48.50
20327;DHT22;20947;47.816;9.644;2022-07-03T18:09:51;22.50;48.40
20327;DHT22;20947;47.816;9.644;2022-07-03T18:14:04;22.40;48.20
20327;DHT22;20947;47.816;9.644;2022-07-03T18:18:37;22.50;48.30
20327;DHT22;20947;47.816;9.644;2022-07-03T18:22:37;22.40;48.10
20327;DHT22;20947;47.816;9.644;2022-07-03T18:26:44;22.50;48.30
20327;DHT22;20947;47.816;9.644;2022-07-03T18:30:52;22.50;48.20
20327;DHT22;20947;47.816;9.644;2022-07-03T18:34:55;22.50;48.20
20327;DHT22;20947;47.816;9.644;2022-07-03T18:38:58;22.50;48.20
20327;DHT22;20947;47.816;9.644;2022-07-03T18:42:59;22.50;48.20
20327;DHT22;20947;47.816;9.644;2022-07-03T18:47:03;22.50;48.00
20327;DHT22;20947;47.816;9.644;2022-07-03T18:51:15;22.50;47.90
20327;DHT22;20947;47.816;9.644;2022-07-03T19:08:03;22.50;47.80
20327;DHT22;20947;47.816;9.644;2022-07-03T19:12:12;22.50;47.80
20327;DHT22;20947;47.816;9.644;2022-07-03T19:16:15;22.50;47.60
20327;DHT22;20947;47.816;9.644;2022-07-03T19:20:20;22.50;47.60
20327;DHT22;20947;47.816;9.644;2022-07-03T19:24:20;22.50;47.50
20327;DHT22;20947;47.816;9.644;2022-07-03T19:28:21;22.50;47.40
20327;DHT22;20947;47.816;9.644;2022-07-03T19:32:24;22.50;47.40
20327;DHT22;20947;47.816;9.644;2022-07-03T19:36:27;22.50;47.30
20327;DHT22;20947;47.816;9.644;2022-07-03T19:40:27;22.50;47.30
20327;DHT22;20947;47.816;9.644;2022-07-03T19:44:30;22.50;47.50
20327;DHT22;20947;47.816;9.644;2022-07-03T19:48:33;22.40;49.20
20327;DHT22;20947;47.816;9.644;2022-07-03T19:52:33;22.30;49.50
20327;DHT22;20947;47.816;9.644;2022-07-03T19:56:34;22.30;49.80
20327;DHT22;20947;47.816;9.644;2022-07-03T20:00:35;22.30;49.70
20327;DHT22;20947;47.816;9.644;2022-07-03T20:04:36;22.20;50.20
20327;DHT22;20947;47.816;9.644;2022-07-03T20:08:37;22.20;50.00
20327;DHT22;20947;47.816;9.644;2022-07-03T20:12:37;22.20;50.40
20327;DHT22;20947;47.816;9.644;2022-07-03T20:16:38;22.10;50.10
20327;DHT22;20947;47.816;9.644;2022-07-03T20:20:39;22.10;50.20
20327;DHT22;20947;47.816;9.644;2022-07-03T20:24:40;22.10;50.40
20327;DHT22;20947;47.816;9.644;2022-07-03T20:28:43;22.10;50.40
20327;DHT22;20947;47.816;9.644;2022-07-03T20:32:43;22.10;50.30
20327;DHT22;20947;47.816;9.644;2022-07-03T20:36:46;22.10;50.60
20327;DHT22;20947;47.816;9.644;2022-07-03T20:40:49;22.10;50.90
20327;DHT22;20947;47.816;9.644;2022-07-03T20:44:49;22.10;51.20
20327;DHT22;20947;47.816;9.644;2022-07-03T20:48:53;22.10;51.20
20327;DHT22;20947;47.816;9.644;2022-07-03T20:52:56;22.10;50.90
20327;DHT22;20947;47.816;9.644;2022-07-03T20:56:59;22.10;51.40
20327;DHT22;20947;47.816;9.644;2022-07-03T21:01:02;22.10;50.70
20327;DHT22;20947;47.816;9.644;2022-07-03T21:05:02;22.00;51.10
20327;DHT22;20947;47.816;9.644;2022-07-03T21:09:05;22.00;51.30
20327;DHT22;20947;47.816;9.644;2022-07-03T21:13:08;22.00;51.00
20327;DHT22;20947;47.816;9.644;2022-07-03T21:17:09;22.00;51.10
20327;DHT22;20947;47.816;9.644;2022-07-03T21:21:10;22.00;50.80
20327;DHT22;20947;47.816;9.644;2022-07-03T21:25:11;22.00;51.30
20327;DHT22;20947;47.816;9.644;2022-07-03T21:29:13;22.00;51.60
20327;DHT22;20947;47.816;9.644;2022-07-03T21:33:17;22.00;51.00
20327;DHT22;20947;47.816;9.644;2022-07-03T21:37:17;22.00;51.50
20327;DHT22;20947;47.816;9.644;2022-07-03T21:41:18;22.00;51.40
20327;DHT22;20947;47.816;9.644;2022-07-03T21:45:19;22.00;51.60
20327;DHT22;20947;47.816;9.644;2022-07-03T21:49:19;22.00;50.90
20327;DHT22;20947;47.816;9.644;2022-07-03T21:53:20;22.00;51.60
20327;DHT22;20947;47.816;9.644;2022-07-03T21:57:21;22.00;51.30
20327;DHT22;20947;47.816;9.644;2022-07-03T22:01:22;22.00;51.70
20327;DHT22;20947;47.816;9.644;2022-07-03T22:05:23;22.00;52.00
20327;DHT22;20947;47.816;9.644;2022-07-03T22:09:24;22.00;52.00
20327;DHT22;20947;47.816;9.644;2022-07-03T22:13:43;22.00;52.20
20327;DHT22;20947;47.816;9.644;2022-07-03T22:17:47;22.00;52.20
20327;DHT22;20947;47.816;9.644;2022-07-03T22:21:48;22.00;51.90
20327;DHT22;20947;47.816;9.644;2022-07-03T22:25:51;22.00;52.10
20327;DHT22;20947;47.816;9.644;2022-07-03T22:29:52;22.00;51.40
20327;DHT22;20947;47.816;9.644;2022-07-03T22:33:52;22.00;51.70
20327;DHT22;20947;47.816;9.644;2022-07-03T22:37:55;22.00;51.90
20327;DHT22;20947;47.816;9.644;2022-07-03T22:41:57;22.00;52.20
20327;DHT22;20947;47.816;9.644;2022-07-03T22:45:58;22.00;52.30
20327;DHT22;20947;47.816;9.644;2022-07-03T22:50:01;22.00;52.40
20327;DHT22;20947;47.816;9.644;2022-07-03T22:54:04;21.90;52.20
20327;DHT22;20947;47.816;9.644;2022-07-03T22:58:09;21.90;52.00
20327;DHT22;20947;47.816;9.644;2022-07-03T23:02:12;21.90;52.10
20327;DHT22;20947;47.816;9.644;2022-07-03T23:06:13;21.90;52.30
20327;DHT22;20947;47.816;9.644;2022-07-03T23:10:14;21.90;51.70
20327;DHT22;20947;47.816;9.644;2022-07-03T23:14:14;21.90;52.90
20327;DHT22;20947;47.816;9.644;2022-07-03T23:18:15;21.90;52.00
20327;DHT22;20947;47.816;9.644;2022-07-03T23:22:18;21.90;52.30
20327;DHT22;20947;47.816;9.644;2022-07-03T23:26:21;21.90;52.50
20327;DHT22;20947;47.816;9.644;2022-07-03T23:30:21;21.90;52.30
20327;DHT22;20947;47.816;9.644;2022-07-03T23:34:22;21.90;52.60
20327;DHT22;20947;47.816;9.644;2022-07-03T23:38:25;21.90;52.20
20327;DHT22;20947;47.816;9.644;2022-07-03T23:42:26;21.90;52.60
20327;DHT22;20947;47.816;9.644;2022-07-03T23:46:26;21.90;52.40
20327;DHT22;20947;47.816;9.644;2022-07-03T23:50:27;21.90;52.30
20327;DHT22;20947;47.816;9.644;2022-07-03T23:54:36;21.90;51.90
20327;DHT22;20947;47.816;9.644;2022-07-03T23:58:37;21.90;52.60
